createdAt,value
2018-08-24T00:00:24.167Z,18.56
2018-08-24T00:01:24.141Z,18.56
2018-08-24T00:02:24.169Z,18.59
2018-08-24T00:03:24.122Z,18.59
2018-08-24T00:04:24.128Z,18.59
2018-08-24T00:05:24.094Z,18.77
2018-08-24T00:06:24.118Z,18.71
2018-08-24T00:07:24.144Z,18.83
2018-08-24T00:08:24.079Z,18.80
2018-08-24T00:09:24.055Z,18.81
2018-08-24T00:10:24.081Z,18.93
2018-08-24T00:11:24.057Z,18.83
2018-08-24T00:12:24.022Z,18.86
2018-08-24T00:13:24.042Z,18.88
2018-08-24T00:14:23.997Z,18.81
2018-08-24T00:15:23.985Z,18.74
2018-08-24T00:16:23.975Z,18.78
2018-08-24T00:17:23.966Z,18.84
2018-08-24T00:18:23.990Z,18.81
2018-08-24T00:19:24.015Z,18.78
2018-08-24T00:20:23.939Z,18.86
2018-08-24T00:21:23.942Z,18.80
2018-08-24T00:22:23.923Z,18.80
2018-08-24T00:23:23.898Z,18.80
2018-08-24T00:24:23.924Z,18.80
2018-08-24T00:25:23.905Z,18.92
2018-08-24T00:26:23.872Z,18.88
2018-08-24T00:27:23.875Z,18.92
2018-08-24T00:28:23.880Z,19.11
2018-08-24T00:29:23.860Z,19.11
2018-08-24T00:30:23.831Z,19.14
2018-08-24T00:31:23.821Z,19.11
2018-08-24T00:32:23.808Z,19.09
2018-08-24T00:33:23.807Z,19.12
2018-08-24T00:34:23.822Z,19.14
2018-08-24T00:35:23.768Z,19.07
2018-08-24T00:36:23.846Z,19.00
2018-08-24T00:37:23.758Z,19.04
2018-08-24T00:38:24.051Z,19.02
2018-08-24T00:39:23.788Z,19.14
2018-08-24T00:40:23.824Z,19.12
2018-08-24T00:41:23.788Z,19.16
2018-08-24T00:42:24.007Z,19.19
2018-08-24T00:43:23.790Z,19.15
2018-08-24T00:44:23.809Z,19.11
2018-08-24T00:45:23.672Z,19.07
2018-08-24T00:46:23.654Z,19.14
2018-08-24T00:47:23.651Z,19.19
2018-08-24T00:48:23.649Z,19.14
2018-08-24T00:49:23.626Z,19.15
2018-08-24T00:50:23.814Z,19.14
2018-08-24T00:51:23.610Z,19.14
2018-08-24T00:52:23.596Z,19.04
2018-08-24T00:53:23.620Z,19.02
2018-08-24T00:54:23.568Z,19.12
2018-08-24T00:55:23.592Z,19.07
2018-08-24T00:56:23.562Z,19.07
2018-08-24T00:57:23.537Z,19.07
2018-08-24T00:58:23.527Z,19.00
2018-08-24T00:59:23.529Z,19.02
2018-08-24T01:00:23.499Z,19.08
2018-08-24T01:01:23.548Z,19.07
2018-08-24T01:02:23.496Z,19.12
2018-08-24T01:03:23.514Z,19.00
2018-08-24T01:04:23.462Z,19.02
2018-08-24T01:05:23.465Z,18.90
2018-08-24T01:06:23.456Z,18.88
2018-08-24T01:07:23.500Z,18.75
2018-08-24T01:08:23.412Z,18.73
2018-08-24T01:09:23.411Z,18.63
2018-08-24T01:10:23.402Z,18.63
2018-08-24T01:11:23.763Z,18.59
2018-08-24T01:12:23.407Z,18.53
2018-08-24T01:13:23.494Z,18.50
2018-08-24T01:14:23.600Z,18.50
2018-08-24T01:15:23.548Z,18.45
2018-08-24T01:16:23.454Z,18.23
2018-08-24T01:17:23.345Z,18.00
2018-08-24T01:18:23.316Z,17.68
2018-08-24T01:19:23.315Z,17.51
2018-08-24T01:20:23.381Z,17.30
2018-08-24T01:21:23.286Z,17.20
2018-08-24T01:22:23.300Z,16.96
2018-08-24T01:23:23.259Z,16.83
2018-08-24T01:24:26.204Z,16.74
2018-08-24T01:25:23.327Z,16.65
2018-08-24T01:26:23.570Z,16.56
2018-08-24T01:27:23.365Z,16.56
2018-08-24T01:28:23.331Z,16.56
2018-08-24T01:29:24.773Z,16.47
2018-08-24T01:30:23.314Z,16.49
2018-08-24T01:31:23.294Z,16.47
2018-08-24T01:32:23.172Z,16.51
2018-08-24T01:33:23.147Z,16.43
2018-08-24T01:34:23.163Z,16.46
2018-08-24T01:35:23.712Z,16.39
2018-08-24T01:36:23.137Z,16.43
2018-08-24T01:37:23.162Z,16.42
2018-08-24T01:38:23.100Z,16.41
2018-08-24T01:39:23.095Z,16.42
2018-08-24T01:40:23.070Z,16.46
2018-08-24T01:41:23.126Z,16.41
2018-08-24T01:42:23.093Z,16.43
2018-08-24T01:43:23.053Z,16.42
2018-08-24T01:44:23.064Z,16.42
2018-08-24T01:45:23.047Z,16.43
2018-08-24T01:46:23.005Z,16.42
2018-08-24T01:47:23.039Z,16.36
2018-08-24T01:48:23.020Z,16.39
2018-08-24T01:49:22.986Z,16.41
2018-08-24T01:50:23.020Z,16.39
2018-08-24T01:51:22.957Z,16.29
2018-08-24T01:52:22.964Z,16.42
2018-08-24T01:53:22.987Z,16.36
2018-08-24T01:54:22.937Z,16.38
2018-08-24T01:55:22.921Z,16.32
2018-08-24T01:56:22.926Z,16.32
2018-08-24T01:57:22.888Z,16.24
2018-08-24T01:58:22.906Z,16.33
2018-08-24T01:59:22.878Z,16.31
2018-08-24T02:00:22.866Z,16.29
2018-08-24T02:01:22.842Z,16.29
2018-08-24T02:02:22.859Z,16.26
2018-08-24T02:03:22.830Z,16.28
2018-08-24T02:04:22.830Z,16.29
2018-08-24T02:05:22.824Z,16.32
2018-08-24T02:06:22.792Z,16.24
2018-08-24T02:07:22.791Z,16.24
2018-08-24T02:08:22.790Z,16.32
2018-08-24T02:09:22.839Z,16.33
2018-08-24T02:10:22.747Z,16.31
2018-08-24T02:11:22.759Z,16.33
2018-08-24T02:12:22.752Z,16.29
2018-08-24T02:13:22.761Z,16.23
2018-08-24T02:14:23.270Z,16.21
2018-08-24T02:15:22.979Z,16.23
2018-08-24T02:16:22.774Z,16.15
2018-08-24T02:17:22.756Z,16.20
2018-08-24T02:18:22.770Z,16.13
2018-08-24T02:19:22.798Z,16.23
2018-08-24T02:20:22.802Z,16.21
2018-08-24T02:21:23.197Z,16.17
2018-08-24T02:22:22.621Z,16.20
2018-08-24T02:23:22.623Z,16.20
2018-08-24T02:24:22.596Z,16.23
2018-08-24T02:25:22.649Z,16.12
2018-08-24T02:26:22.593Z,16.12
2018-08-24T02:27:22.594Z,16.09
2018-08-24T02:28:22.547Z,16.05
2018-08-24T02:29:22.542Z,16.09
2018-08-24T02:30:22.553Z,16.09
2018-08-24T02:31:22.616Z,16.04
2018-08-24T02:32:22.518Z,16.01
2018-08-24T02:33:22.498Z,16.01
2018-08-24T02:34:22.489Z,16.01
2018-08-24T02:35:22.517Z,16.02
2018-08-24T02:36:22.482Z,16.00
2018-08-24T02:37:22.482Z,16.01
2018-08-24T02:38:22.472Z,16.02
2018-08-24T02:39:22.428Z,16.00
2018-08-24T02:40:22.419Z,16.05
2018-08-24T02:41:22.453Z,16.05
2018-08-24T02:42:22.416Z,16.05
2018-08-24T02:43:22.436Z,16.04
2018-08-24T02:44:22.446Z,16.00
2018-08-24T02:45:22.368Z,16.02
2018-08-24T02:46:22.372Z,16.00
2018-08-24T02:47:22.410Z,16.01
2018-08-24T02:48:22.329Z,15.97
2018-08-24T02:49:22.321Z,15.95
2018-08-24T02:50:22.326Z,16.00
2018-08-24T02:51:22.340Z,15.97
2018-08-24T02:52:22.334Z,16.01
2018-08-24T02:53:22.317Z,15.92
2018-08-24T02:54:22.284Z,15.94
2018-08-24T02:55:22.261Z,15.95
2018-08-24T02:56:22.289Z,15.95
2018-08-24T02:57:22.291Z,15.98
2018-08-24T02:58:22.242Z,15.95
2018-08-24T02:59:23.214Z,15.92
2018-08-24T03:00:23.199Z,15.94
2018-08-24T03:01:23.244Z,15.79
2018-08-24T03:02:22.738Z,15.84
2018-08-24T03:03:22.353Z,15.79
2018-08-24T03:04:22.272Z,15.82
2018-08-24T03:05:22.434Z,15.76
2018-08-24T03:06:22.138Z,15.73
2018-08-24T03:07:22.145Z,15.72
2018-08-24T03:08:22.188Z,15.76
2018-08-24T03:09:22.111Z,15.70
2018-08-24T03:10:22.127Z,15.73
2018-08-24T03:11:22.082Z,15.76
2018-08-24T03:12:22.090Z,15.67
2018-08-24T03:13:22.081Z,15.67
2018-08-24T03:14:22.053Z,15.57
2018-08-24T03:15:22.051Z,15.57
2018-08-24T03:16:22.157Z,15.47
2018-08-24T03:17:22.069Z,15.55
2018-08-24T03:18:22.009Z,15.58
2018-08-24T03:19:22.015Z,15.62
2018-08-24T03:20:22.013Z,15.51
2018-08-24T03:21:21.990Z,15.54
2018-08-24T03:22:22.027Z,15.44
2018-08-24T03:23:21.960Z,15.42
2018-08-24T03:24:21.967Z,15.49
2018-08-24T03:25:21.934Z,15.51
2018-08-24T03:26:21.982Z,15.47
2018-08-24T03:27:21.917Z,15.44
2018-08-24T03:28:21.950Z,15.33
2018-08-24T03:29:21.893Z,15.35
2018-08-24T03:30:21.891Z,15.24
2018-08-24T03:31:21.868Z,15.33
2018-08-24T03:32:21.857Z,15.28
2018-08-24T03:33:21.894Z,15.25
2018-08-24T03:34:21.854Z,15.21
2018-08-24T03:35:21.843Z,15.25
2018-08-24T03:36:21.821Z,15.18
2018-08-24T03:37:21.811Z,15.21
2018-08-24T03:38:21.814Z,15.17
2018-08-24T03:39:21.804Z,15.09
2018-08-24T03:40:21.789Z,15.10
2018-08-24T03:41:21.764Z,15.02
2018-08-24T03:42:21.759Z,14.97
2018-08-24T03:43:21.772Z,14.96
2018-08-24T03:44:22.731Z,14.96
2018-08-24T03:45:21.720Z,15.09
2018-08-24T03:46:21.722Z,15.02
2018-08-24T03:47:21.720Z,15.02
2018-08-24T03:48:22.198Z,14.92
2018-08-24T03:49:22.296Z,15.02
2018-08-24T03:50:22.186Z,15.02
2018-08-24T03:51:21.770Z,14.96
2018-08-24T03:52:21.708Z,14.97
2018-08-24T03:53:21.837Z,14.97
2018-08-24T03:54:21.625Z,14.91
2018-08-24T03:55:21.739Z,15.00
2018-08-24T03:56:21.595Z,14.99
2018-08-24T03:57:21.600Z,14.97
2018-08-24T03:58:21.598Z,14.96
2018-08-24T03:59:21.609Z,14.97
2018-08-24T04:00:21.583Z,15.00
2018-08-24T04:01:21.662Z,14.92
2018-08-24T04:02:21.552Z,14.96
2018-08-24T04:03:21.525Z,14.97
2018-08-24T04:04:21.590Z,14.86
2018-08-24T04:05:21.519Z,14.92
2018-08-24T04:06:21.545Z,14.99
2018-08-24T04:07:21.528Z,14.89
2018-08-24T04:08:21.475Z,14.89
2018-08-24T04:09:21.460Z,14.89
2018-08-24T04:10:21.714Z,14.85
2018-08-24T04:11:21.456Z,14.86
2018-08-24T04:12:21.440Z,14.91
2018-08-24T04:13:21.443Z,14.92
2018-08-24T04:14:21.449Z,14.84
2018-08-24T04:15:21.417Z,14.88
2018-08-24T04:16:21.394Z,14.85
2018-08-24T04:17:21.435Z,14.94
2018-08-24T04:18:21.451Z,15.00
2018-08-24T04:19:21.423Z,14.96
2018-08-24T04:20:21.382Z,15.00
2018-08-24T04:21:22.676Z,14.97
2018-08-24T04:22:49.543Z,14.99
2018-08-24T04:23:23.839Z,15.02
2018-08-24T04:24:23.664Z,15.02
2018-08-24T04:25:26.417Z,14.96
2018-08-24T04:26:24.380Z,14.99
2018-08-24T04:27:23.908Z,15.00
2018-08-24T04:28:21.465Z,15.04
2018-08-24T04:29:24.689Z,15.11
2018-08-24T04:30:24.913Z,15.04
2018-08-24T04:31:21.736Z,15.10
2018-08-24T04:32:21.454Z,15.10
2018-08-24T04:33:35.034Z,15.06
2018-08-24T04:34:21.190Z,15.10
2018-08-24T04:35:24.638Z,15.07
2018-08-24T04:36:24.646Z,15.00
2018-08-24T04:37:21.236Z,14.99
2018-08-24T04:38:24.855Z,15.06
2018-08-24T04:39:21.172Z,14.96
2018-08-24T04:40:23.807Z,15.02
2018-08-24T04:41:23.688Z,15.03
2018-08-24T04:42:36.657Z,15.04
2018-08-24T04:43:21.182Z,15.07
2018-08-24T04:44:23.534Z,15.06
2018-08-24T04:45:21.129Z,15.06
2018-08-24T04:46:23.811Z,15.07
2018-08-24T04:47:23.271Z,15.04
2018-08-24T04:48:22.687Z,15.04
2018-08-24T04:49:22.890Z,15.11
2018-08-24T04:50:21.152Z,15.07
2018-08-24T04:51:21.270Z,15.10
2018-08-24T04:52:21.203Z,15.09
2018-08-24T04:53:23.619Z,15.09
2018-08-24T04:54:23.736Z,15.14
2018-08-24T04:55:21.016Z,15.18
2018-08-24T04:56:23.092Z,15.22
2018-08-24T04:57:20.956Z,15.18
2018-08-24T04:58:35.162Z,15.15
2018-08-24T04:59:20.939Z,15.27
2018-08-24T05:00:23.888Z,15.27
2018-08-24T05:01:22.904Z,15.36
2018-08-24T05:02:21.856Z,15.29
2018-08-24T05:03:21.900Z,15.40
2018-08-24T05:04:28.642Z,15.43
2018-08-24T05:05:24.712Z,15.52
2018-08-24T05:06:24.924Z,15.54
2018-08-24T05:07:21.272Z,15.49
2018-08-24T05:08:30.195Z,15.59
2018-08-24T05:09:23.216Z,15.59
2018-08-24T05:10:22.144Z,15.46
2018-08-24T05:11:36.779Z,15.55
2018-08-24T05:12:21.749Z,15.58
2018-08-24T05:13:37.492Z,15.51
2018-08-24T05:14:29.886Z,15.51
2018-08-24T05:15:44.160Z,15.52
2018-08-24T05:16:21.536Z,15.52
2018-08-24T05:17:23.735Z,15.62
2018-08-24T05:18:26.005Z,15.58
2018-08-24T05:19:28.764Z,15.58
2018-08-24T05:20:21.037Z,15.57
2018-08-24T05:21:22.116Z,15.62
2018-08-24T05:22:20.692Z,15.64
2018-08-24T05:23:21.426Z,15.61
2018-08-24T05:24:24.157Z,15.67
2018-08-24T05:25:22.387Z,15.70
2018-08-24T05:26:34.829Z,15.70
2018-08-24T05:27:41.632Z,15.70
2018-08-24T05:28:22.400Z,15.72
2018-08-24T05:29:25.218Z,15.68
2018-08-24T05:30:22.338Z,15.72
2018-08-24T05:31:21.167Z,15.73
2018-08-24T05:32:20.781Z,15.72
2018-08-24T05:33:20.725Z,15.72
2018-08-24T05:34:21.251Z,15.73
2018-08-24T05:35:23.818Z,15.68
2018-08-24T05:36:21.313Z,15.70
2018-08-24T05:37:21.047Z,15.72
2018-08-24T05:38:23.060Z,15.68
2018-08-24T05:39:20.911Z,15.75
2018-08-24T05:40:21.227Z,15.72
2018-08-24T05:41:20.666Z,15.70
2018-08-24T05:42:21.054Z,15.76
2018-08-24T05:43:20.497Z,15.70
2018-08-24T05:44:21.386Z,15.70
2018-08-24T05:45:20.854Z,15.73
2018-08-24T05:46:20.674Z,15.84
2018-08-24T05:47:20.496Z,15.77
2018-08-24T05:48:24.887Z,15.84
2018-08-24T05:49:33.535Z,15.88
2018-08-24T05:50:21.435Z,15.86
2018-08-24T05:51:21.590Z,15.83
2018-08-24T05:52:21.266Z,15.80
2018-08-24T05:53:28.149Z,15.88
2018-08-24T05:54:37.071Z,16.00
2018-08-24T05:55:22.834Z,15.94
2018-08-24T05:56:20.334Z,15.91
2018-08-24T05:57:21.234Z,15.91
2018-08-24T05:58:35.232Z,15.91
2018-08-24T05:59:36.919Z,15.91
2018-08-24T06:00:22.174Z,15.83
2018-08-24T06:01:22.148Z,15.92
2018-08-24T06:02:24.633Z,15.92
2018-08-24T06:03:23.610Z,15.95
2018-08-24T06:04:21.525Z,15.92
2018-08-24T06:05:23.397Z,15.92
2018-08-24T06:06:35.192Z,15.95
2018-08-24T06:07:21.842Z,15.92
2018-08-24T06:08:22.066Z,15.91
2018-08-24T06:09:20.283Z,15.88
2018-08-24T06:10:20.265Z,15.92
2018-08-24T06:11:20.529Z,15.94
2018-08-24T06:12:23.886Z,15.95
2018-08-24T06:13:30.232Z,15.91
2018-08-24T06:14:22.705Z,15.97
2018-08-24T06:15:22.651Z,16.01
2018-08-24T06:16:21.218Z,16.00
2018-08-24T06:17:26.710Z,15.95
2018-08-24T06:18:20.685Z,15.94
2018-08-24T06:19:20.633Z,15.94
2018-08-24T06:20:22.683Z,15.94
2018-08-24T06:21:23.279Z,16.01
2018-08-24T06:22:22.752Z,15.94
2018-08-24T06:23:20.247Z,15.88
2018-08-24T06:24:23.435Z,15.92
2018-08-24T06:25:21.692Z,16.00
2018-08-24T06:26:20.800Z,15.95
2018-08-24T06:27:21.396Z,15.95
2018-08-24T06:28:20.098Z,15.92
2018-08-24T06:29:21.773Z,15.91
2018-08-24T06:30:22.806Z,15.97
2018-08-24T06:31:33.230Z,15.94
2018-08-24T06:32:19.978Z,15.92
2018-08-24T06:33:23.305Z,15.94
2018-08-24T06:34:20.697Z,15.94
2018-08-24T06:35:41.646Z,15.92
2018-08-24T06:36:24.126Z,15.98
2018-08-24T06:37:20.113Z,15.94
2018-08-24T06:38:22.266Z,15.92
2018-08-24T06:39:46.590Z,15.95
2018-08-24T06:40:22.632Z,16.00
2018-08-24T06:41:19.820Z,16.01
2018-08-24T06:42:20.014Z,16.09
2018-08-24T06:43:25.027Z,16.24
2018-08-24T06:44:19.826Z,16.29
2018-08-24T06:45:23.573Z,16.20
2018-08-24T06:46:25.795Z,16.26
2018-08-24T06:47:22.537Z,16.29
2018-08-24T06:48:19.752Z,16.38
2018-08-24T06:49:19.759Z,16.38
2018-08-24T06:50:21.449Z,16.36
2018-08-24T06:51:24.267Z,16.39
2018-08-24T06:52:24.178Z,16.41
2018-08-24T06:53:19.860Z,16.41
2018-08-24T06:54:43.804Z,16.42
2018-08-24T06:55:19.752Z,16.49
2018-08-24T06:56:37.366Z,16.54
2018-08-24T06:57:19.755Z,16.66
2018-08-24T06:58:22.987Z,16.69
2018-08-24T06:59:20.796Z,16.69
2018-08-24T07:00:22.091Z,16.68
2018-08-24T07:01:22.698Z,16.71
2018-08-24T07:02:51.818Z,16.79
2018-08-24T07:03:19.625Z,16.89
2018-08-24T07:04:21.898Z,16.89
2018-08-24T07:05:20.812Z,16.91
2018-08-24T07:06:22.181Z,16.97
2018-08-24T07:07:35.365Z,16.91
2018-08-24T07:08:25.885Z,16.96
2018-08-24T07:09:21.853Z,17.02
2018-08-24T07:10:23.635Z,17.02
2018-08-24T07:11:19.562Z,16.96
2018-08-24T07:12:19.835Z,16.94
2018-08-24T07:13:23.180Z,16.87
2018-08-24T07:14:19.478Z,16.91
2018-08-24T07:15:19.462Z,16.91
2018-08-24T07:16:27.296Z,16.86
2018-08-24T07:17:21.551Z,16.91
2018-08-24T07:18:19.458Z,16.91
2018-08-24T07:19:22.267Z,16.96
2018-08-24T07:20:24.284Z,16.91
2018-08-24T07:21:19.556Z,16.97
2018-08-24T07:22:22.776Z,16.99
2018-08-24T07:23:19.519Z,17.01
2018-08-24T07:24:32.380Z,17.02
2018-08-24T07:25:22.271Z,16.99
2018-08-24T07:26:22.074Z,17.04
2018-08-24T07:27:22.041Z,17.05
2018-08-24T07:28:27.906Z,17.14
2018-08-24T07:29:22.993Z,17.16
2018-08-24T07:30:20.030Z,17.11
2018-08-24T07:31:19.692Z,17.15
2018-08-24T07:32:19.401Z,17.12
2018-08-24T07:33:19.317Z,17.04
2018-08-24T07:34:29.800Z,17.06
2018-08-24T07:35:22.122Z,17.02
2018-08-24T07:36:28.349Z,17.01
2018-08-24T07:37:30.238Z,16.94
2018-08-24T07:38:22.130Z,16.93
2018-08-24T07:39:20.767Z,16.91
2018-08-24T07:40:21.501Z,16.96
2018-08-24T07:41:42.969Z,17.02
2018-08-24T07:42:19.564Z,16.99
2018-08-24T07:43:21.937Z,16.93
2018-08-24T07:44:28.778Z,16.91
2018-08-24T07:45:23.054Z,16.99
2018-08-24T07:46:19.936Z,16.97
2018-08-24T07:47:19.549Z,17.12
2018-08-24T07:48:23.267Z,17.12
2018-08-24T07:49:19.469Z,17.12
2018-08-24T07:50:22.068Z,17.01
2018-08-24T07:51:19.376Z,16.91
2018-08-24T07:52:19.618Z,16.90
2018-08-24T07:53:24.811Z,16.87
2018-08-24T07:54:27.640Z,16.87
2018-08-24T07:55:20.074Z,16.81
2018-08-24T07:56:19.083Z,16.74
2018-08-24T07:57:21.394Z,16.68
2018-08-24T07:58:19.813Z,16.60
2018-08-24T07:59:36.752Z,16.56
2018-08-24T08:00:19.799Z,16.54
2018-08-24T08:01:21.728Z,16.57
2018-08-24T08:02:22.260Z,16.58
2018-08-24T08:03:43.878Z,16.61
2018-08-24T08:04:18.993Z,16.72
2018-08-24T08:05:20.969Z,16.81
2018-08-24T08:06:19.356Z,16.72
2018-08-24T08:07:19.105Z,16.76
2018-08-24T08:08:18.931Z,16.76
2018-08-24T08:09:18.922Z,16.81
2018-08-24T08:10:18.975Z,16.90
2018-08-24T08:11:18.956Z,16.96
2018-08-24T08:12:29.178Z,16.94
2018-08-24T08:13:25.756Z,17.02
2018-08-24T08:14:20.273Z,17.14
2018-08-24T08:15:19.657Z,17.19
2018-08-24T08:16:18.980Z,17.27
2018-08-24T08:17:21.211Z,17.19
2018-08-24T08:18:21.889Z,17.23
2018-08-24T08:19:19.118Z,17.36
2018-08-24T08:20:18.932Z,17.39
2018-08-24T08:21:18.886Z,17.42
2018-08-24T08:22:18.761Z,17.57
2018-08-24T08:23:18.757Z,17.51
2018-08-24T08:24:18.714Z,17.56
2018-08-24T08:25:18.783Z,17.63
2018-08-24T08:26:18.787Z,17.63
2018-08-24T08:27:18.837Z,17.65
2018-08-24T08:28:18.671Z,17.65
2018-08-24T08:29:18.675Z,17.83
2018-08-24T08:30:18.642Z,17.94
2018-08-24T08:31:18.656Z,18.11
2018-08-24T08:32:18.666Z,18.03
2018-08-24T08:33:18.771Z,18.00
2018-08-24T08:34:18.672Z,17.87
2018-08-24T08:35:18.665Z,17.76
2018-08-24T08:36:19.351Z,17.65
2018-08-24T08:37:18.618Z,17.52
2018-08-24T08:38:18.579Z,17.26
2018-08-24T08:39:18.553Z,17.20
2018-08-24T08:40:18.536Z,17.15
2018-08-24T08:41:18.521Z,16.97
2018-08-24T08:42:18.555Z,17.09
2018-08-24T08:43:18.526Z,17.01
2018-08-24T08:44:18.489Z,16.91
2018-08-24T08:45:18.504Z,16.84
2018-08-24T08:46:18.469Z,16.96
2018-08-24T08:47:18.458Z,16.84
2018-08-24T08:48:18.455Z,16.87
2018-08-24T08:49:18.458Z,16.81
2018-08-24T08:50:18.424Z,16.68
2018-08-24T08:51:18.419Z,16.74
2018-08-24T08:52:18.408Z,16.71
2018-08-24T08:53:18.413Z,16.74
2018-08-24T08:54:18.414Z,16.69
2018-08-24T08:55:18.379Z,16.66
2018-08-24T08:56:18.363Z,16.46
2018-08-24T08:57:18.358Z,16.41
2018-08-24T08:58:18.341Z,16.33
2018-08-24T08:59:18.331Z,16.33
2018-08-24T09:00:18.370Z,16.16
2018-08-24T09:01:18.304Z,16.01
2018-08-24T09:02:18.331Z,15.95
2018-08-24T09:03:18.301Z,15.84
2018-08-24T09:04:18.307Z,15.83
2018-08-24T09:05:18.317Z,15.70
2018-08-24T09:06:18.305Z,15.72
2018-08-24T09:07:18.274Z,15.62
2018-08-24T09:08:18.233Z,15.57
2018-08-24T09:09:18.226Z,15.55
2018-08-24T09:10:18.234Z,15.73
2018-08-24T09:11:18.209Z,15.75
2018-08-24T09:12:18.198Z,15.80
2018-08-24T09:13:18.179Z,15.92
2018-08-24T09:14:18.167Z,16.00
2018-08-24T09:15:18.178Z,16.13
2018-08-24T09:16:18.145Z,16.15
2018-08-24T09:17:18.140Z,16.23
2018-08-24T09:18:18.137Z,16.41
2018-08-24T09:19:18.116Z,16.41
2018-08-24T09:20:18.169Z,16.39
2018-08-24T09:21:18.093Z,16.31
2018-08-24T09:22:18.082Z,16.49
2018-08-24T09:23:18.076Z,16.61
2018-08-24T09:24:18.063Z,16.71
2018-08-24T09:25:18.113Z,16.65
2018-08-24T09:26:18.037Z,16.81
2018-08-24T09:27:18.069Z,16.71
2018-08-24T09:28:18.026Z,16.58
2018-08-24T09:29:18.010Z,16.41
2018-08-24T09:30:18.006Z,16.43
2018-08-24T09:31:18.015Z,16.28
2018-08-24T09:32:18.030Z,16.24
2018-08-24T09:33:17.964Z,16.20
2018-08-24T09:34:17.995Z,16.10
2018-08-24T09:35:17.942Z,16.09
2018-08-24T09:36:17.955Z,16.04
2018-08-24T09:37:17.926Z,15.94
2018-08-24T09:38:17.918Z,15.88
2018-08-24T09:39:17.899Z,15.91
2018-08-24T09:40:17.907Z,15.80
2018-08-24T09:41:17.917Z,15.88
2018-08-24T09:42:17.874Z,15.76
2018-08-24T09:43:17.864Z,15.70
2018-08-24T09:44:17.855Z,15.62
2018-08-24T09:45:17.832Z,15.75
2018-08-24T09:46:17.843Z,15.68
2018-08-24T09:47:17.861Z,15.75
2018-08-24T09:48:17.803Z,15.75
2018-08-24T09:49:17.809Z,15.65
2018-08-24T09:50:17.797Z,15.79
2018-08-24T09:51:17.794Z,15.77
2018-08-24T09:52:17.819Z,15.84
2018-08-24T09:53:17.748Z,16.08
2018-08-24T09:54:17.735Z,16.38
2018-08-24T09:55:17.729Z,16.46
2018-08-24T09:56:17.723Z,16.78
2018-08-24T09:57:17.736Z,16.93
2018-08-24T09:58:17.718Z,16.90
2018-08-24T09:59:17.688Z,16.99
2018-08-24T10:00:17.671Z,16.99
2018-08-24T10:01:17.776Z,16.97
2018-08-24T10:02:17.655Z,17.04
2018-08-24T10:03:17.695Z,17.01
2018-08-24T10:04:17.704Z,17.05
2018-08-24T10:05:17.697Z,17.01
2018-08-24T10:06:17.628Z,17.09
2018-08-24T10:07:17.604Z,17.14
2018-08-24T10:08:17.605Z,17.36
2018-08-24T10:09:17.583Z,17.60
2018-08-24T10:10:17.565Z,17.64
2018-08-24T10:11:17.555Z,17.86
2018-08-24T10:12:17.541Z,18.15
2018-08-24T10:13:17.586Z,18.28
2018-08-24T10:14:17.523Z,18.37
2018-08-24T10:15:17.515Z,18.47
2018-08-24T10:16:17.516Z,18.88
2018-08-24T10:17:17.487Z,18.95
2018-08-24T10:18:17.534Z,18.90
2018-08-24T10:19:17.467Z,18.92
2018-08-24T10:20:17.455Z,19.02
2018-08-24T10:21:17.822Z,19.02
2018-08-24T10:22:17.452Z,19.18
2018-08-24T10:23:17.425Z,19.19
2018-08-24T10:24:17.458Z,19.29
2018-08-24T10:25:17.408Z,19.21
2018-08-24T10:26:17.425Z,19.24
2018-08-24T10:27:17.383Z,19.22
2018-08-24T10:28:17.382Z,18.90
2018-08-24T10:29:17.424Z,18.84
2018-08-24T10:30:17.365Z,18.88
2018-08-24T10:31:17.366Z,18.63
2018-08-24T10:32:17.369Z,18.50
2018-08-24T10:33:17.348Z,18.41
2018-08-24T10:34:17.343Z,18.49
2018-08-24T10:35:17.370Z,18.38
2018-08-24T10:36:17.283Z,18.13
2018-08-24T10:37:17.276Z,18.04
2018-08-24T10:38:17.269Z,18.00
2018-08-24T10:39:17.255Z,17.92
2018-08-24T10:40:17.296Z,17.94
2018-08-24T10:41:17.243Z,17.83
2018-08-24T10:42:17.220Z,17.64
2018-08-24T10:43:21.313Z,17.60
2018-08-24T10:44:38.310Z,17.49
2018-08-24T10:45:17.201Z,17.36
2018-08-24T10:46:17.222Z,17.34
2018-08-24T10:47:17.227Z,17.38
2018-08-24T10:48:17.160Z,17.52
2018-08-24T10:49:17.196Z,17.63
2018-08-24T10:50:17.139Z,17.67
2018-08-24T10:51:17.208Z,17.60
2018-08-24T10:52:17.154Z,17.49
2018-08-24T10:53:17.105Z,17.60
2018-08-24T10:54:17.088Z,17.59
2018-08-24T10:55:17.116Z,17.74
2018-08-24T10:56:17.134Z,17.74
2018-08-24T10:57:17.062Z,17.94
2018-08-24T10:58:17.045Z,17.97
2018-08-24T10:59:17.036Z,18.05
2018-08-24T11:00:17.051Z,18.01
2018-08-24T11:01:17.055Z,17.98
2018-08-24T11:02:17.009Z,17.98
2018-08-24T11:03:17.020Z,18.03
2018-08-24T11:04:16.985Z,17.90
2018-08-24T11:05:17.021Z,17.90
2018-08-24T11:06:17.021Z,17.97
2018-08-24T11:07:17.033Z,17.83
2018-08-24T11:08:16.943Z,18.04
2018-08-24T11:09:16.931Z,18.22
2018-08-24T11:10:16.921Z,18.15
2018-08-24T11:11:16.908Z,18.15
2018-08-24T11:12:16.914Z,18.31
2018-08-24T11:13:16.886Z,18.50
2018-08-24T11:14:16.879Z,18.88
2018-08-24T11:15:16.863Z,19.12
2018-08-24T11:16:16.862Z,19.27
2018-08-24T11:17:16.870Z,19.36
2018-08-24T11:18:16.828Z,19.62
2018-08-24T11:19:16.818Z,19.63
2018-08-24T11:20:16.814Z,19.76
2018-08-24T11:21:16.802Z,19.62
2018-08-24T11:22:16.819Z,19.96
2018-08-24T11:23:16.780Z,20.18
2018-08-24T11:24:16.764Z,20.21
2018-08-24T11:25:16.753Z,20.32
2018-08-24T11:26:16.800Z,20.59
2018-08-24T11:27:16.750Z,20.90
2018-08-24T11:28:16.747Z,21.29
2018-08-24T11:29:16.774Z,21.50
2018-08-24T11:30:16.700Z,21.64
2018-08-24T11:31:16.692Z,22.04
2018-08-24T11:32:16.684Z,22.28
2018-08-24T11:33:16.743Z,22.35
2018-08-24T11:34:16.664Z,22.28
2018-08-24T11:35:16.656Z,22.08
2018-08-24T11:36:16.736Z,21.99
2018-08-24T11:37:16.627Z,21.43
2018-08-24T11:38:16.619Z,21.06
2018-08-24T11:39:16.628Z,20.93
2018-08-24T11:40:16.600Z,20.81
2018-08-24T11:41:16.592Z,20.78
2018-08-24T11:42:16.642Z,20.95
2018-08-24T11:43:16.568Z,21.03
2018-08-24T11:44:16.582Z,20.93
2018-08-24T11:45:16.543Z,22.00
2018-08-24T11:46:16.548Z,22.78
2018-08-24T11:47:16.533Z,22.06
2018-08-24T11:48:16.531Z,21.36
2018-08-24T11:49:16.509Z,20.80
2018-08-24T11:50:16.531Z,20.60
2018-08-24T11:51:16.483Z,20.96
2018-08-24T11:52:16.480Z,22.14
2018-08-24T11:53:16.468Z,22.90
2018-08-24T11:54:16.474Z,23.74
2018-08-24T11:55:16.463Z,24.38
2018-08-24T11:56:16.432Z,24.47
2018-08-24T11:57:16.418Z,24.98
2018-08-24T11:58:16.423Z,25.58
2018-08-24T11:59:16.430Z,25.38
2018-08-24T12:00:16.412Z,25.48
2018-08-24T12:01:16.384Z,25.41
2018-08-24T12:02:16.368Z,25.26
2018-08-24T12:03:16.363Z,25.33
2018-08-24T12:04:16.351Z,25.53
2018-08-24T12:05:16.371Z,25.68
2018-08-24T12:06:16.333Z,25.70
2018-08-24T12:07:16.318Z,25.81
2018-08-24T12:08:16.330Z,25.90
2018-08-24T12:09:16.297Z,26.10
2018-08-24T12:10:16.295Z,25.99
2018-08-24T12:11:16.300Z,25.17
2018-08-24T12:12:16.336Z,23.98
2018-08-24T12:13:16.261Z,23.76
2018-08-24T12:14:16.371Z,23.23
2018-08-24T12:15:16.238Z,22.90
2018-08-24T12:16:16.246Z,23.47
2018-08-24T12:17:16.218Z,23.48
2018-08-24T12:18:16.254Z,23.08
2018-08-24T12:19:16.197Z,23.40
2018-08-24T12:20:16.188Z,22.81
2018-08-24T12:21:16.298Z,22.22
2018-08-24T12:22:16.162Z,22.14
2018-08-24T12:23:16.153Z,23.06
2018-08-24T12:24:16.191Z,23.98
2018-08-24T12:25:16.140Z,24.55
2018-08-24T12:26:16.127Z,23.69
2018-08-24T12:27:16.198Z,22.72
2018-08-24T12:28:16.105Z,23.13
2018-08-24T12:29:16.093Z,23.61
2018-08-24T12:30:16.078Z,24.08
2018-08-24T12:31:16.072Z,24.39
2018-08-24T12:32:16.090Z,24.58
2018-08-24T12:33:16.073Z,24.33
2018-08-24T12:34:16.038Z,24.11
2018-08-24T12:35:16.041Z,24.42
2018-08-24T12:36:16.028Z,25.11
2018-08-24T12:37:16.014Z,25.53
2018-08-24T12:38:16.025Z,25.93
2018-08-24T12:39:15.991Z,26.21
2018-08-24T12:40:15.975Z,26.55
2018-08-24T12:41:16.053Z,27.08
2018-08-24T12:42:15.951Z,27.07
2018-08-24T12:43:16.001Z,27.15
2018-08-24T12:44:15.937Z,27.47
2018-08-24T12:45:15.928Z,27.95
2018-08-24T12:46:15.918Z,27.92
2018-08-24T12:47:15.908Z,27.67
2018-08-24T12:48:15.913Z,27.48
2018-08-24T12:49:15.916Z,26.97
2018-08-24T12:50:15.882Z,26.92
2018-08-24T12:51:15.872Z,26.88
2018-08-24T12:52:15.938Z,27.14